sensor_id;sensor_type;location;lat;lon;timestamp;temperature;humidity
20815;DHT22;10568;48.176;16.316;2022-09-09T00:03:53;14.20;99.90
20815;DHT22;10568;48.176;16.316;2022-09-09T00:06:27;14.20;99.90
20815;DHT22;10568;48.176;16.316;2022-09-09T00:09:19;14.20;99.90
20815;DHT22;10568;48.176;16.316;2022-09-09T00:11:52;14.30;99.90
20815;DHT22;10568;48.176;16.316;2022-09-09T00:14:40;14.20;99.90
20815;DHT22;10568;48.176;16.316;2022-09-09T00:17:35;14.30;99.90
20815;DHT22;10568;48.176;16.316;2022-09-09T00:20:48;14.30;99.90
20815;DHT22;10568;48.176;16.316;2022-09-09T00:25:50;14.30;99.90
20815;DHT22;10568;48.176;16.316;2022-09-09T00:28:23;14.40;99.90
20815;DHT22;10568;48.176;16.316;2022-09-09T00:30:50;14.40;99.90
20815;DHT22;10568;48.176;16.316;2022-09-09T00:33:25;14.40;99.90
20815;DHT22;10568;48.176;16.316;2022-09-09T00:35:57;14.30;99.90
20815;DHT22;10568;48.176;16.316;2022-09-09T00:38:31;14.40;99.90
20815;DHT22;10568;48.176;16.316;2022-09-09T00:41:22;14.30;99.90
20815;DHT22;10568;48.176;16.316;2022-09-09T01:01:30;14.30;99.90
20815;DHT22;10568;48.176;16.316;2022-09-09T01:03:57;14.10;99.90
20815;DHT22;10568;48.176;16.316;2022-09-09T01:06:35;14.30;99.90
20815;DHT22;10568;48.176;16.316;2022-09-09T01:12:12;14.30;99.90
20815;DHT22;10568;48.176;16.316;2022-09-09T01:14:51;14.30;99.90
20815;DHT22;10568;48.176;16.316;2022-09-09T01:17:25;14.30;99.90
20815;DHT22;10568;48.176;16.316;2022-09-09T01:23:13;14.30;99.90
20815;DHT22;10568;48.176;16.316;2022-09-09T01:28:31;14.30;99.90
20815;DHT22;10568;48.176;16.316;2022-09-09T01:31:01;14.30;99.90
20815;DHT22;10568;48.176;16.316;2022-09-09T01:33:28;14.30;99.90
20815;DHT22;10568;48.176;16.316;2022-09-09T01:35:55;14.30;99.90
20815;DHT22;10568;48.176;16.316;2022-09-09T01:38:24;14.30;99.90
20815;DHT22;10568;48.176;16.316;2022-09-09T01:40:51;14.30;99.90
20815;DHT22;10568;48.176;16.316;2022-09-09T01:43:21;14.20;99.90
20815;DHT22;10568;48.176;16.316;2022-09-09T01:45:50;14.20;99.90
20815;DHT22;10568;48.176;16.316;2022-09-09T01:48:19;14.10;99.90
20815;DHT22;10568;48.176;16.316;2022-09-09T01:50:46;14.10;99.90
20815;DHT22;10568;48.176;16.316;2022-09-09T01:53:12;14.10;99.90
20815;DHT22;10568;48.176;16.316;2022-09-09T02:00:54;14.00;99.90
20815;DHT22;10568;48.176;16.316;2022-09-09T02:03:28;14.20;99.90
20815;DHT22;10568;48.176;16.316;2022-09-09T02:06:23;14.00;99.90
20815;DHT22;10568;48.176;16.316;2022-09-09T02:08:53;13.90;99.90
20815;DHT22;10568;48.176;16.316;2022-09-09T02:11:23;13.90;99.90
20815;DHT22;10568;48.176;16.316;2022-09-09T02:13:54;13.90;99.90
20815;DHT22;10568;48.176;16.316;2022-09-09T02:21:40;13.90;99.90
20815;DHT22;10568;48.176;16.316;2022-09-09T02:24:08;13.90;99.90
20815;DHT22;10568;48.176;16.316;2022-09-09T02:26:39;13.80;99.90
20815;DHT22;10568;48.176;16.316;2022-09-09T02:29:12;13.80;99.90
20815;DHT22;10568;48.176;16.316;2022-09-09T02:31:41;13.80;99.90
20815;DHT22;10568;48.176;16.316;2022-09-09T02:34:10;13.80;99.90
20815;DHT22;10568;48.176;16.316;2022-09-09T02:36:38;13.80;99.90
20815;DHT22;10568;48.176;16.316;2022-09-09T02:39:07;13.80;99.90
20815;DHT22;10568;48.176;16.316;2022-09-09T02:41:36;13.80;99.90
20815;DHT22;10568;48.176;16.316;2022-09-09T02:44:08;13.90;99.90
20815;DHT22;10568;48.176;16.316;2022-09-09T02:55:02;13.80;99.90
20815;DHT22;10568;48.176;16.316;2022-09-09T02:57:31;13.90;99.90
20815;DHT22;10568;48.176;16.316;2022-09-09T03:00:00;13.90;99.90
20815;DHT22;10568;48.176;16.316;2022-09-09T03:02:27;13.90;99.90
20815;DHT22;10568;48.176;16.316;2022-09-09T03:04:53;14.00;99.90
20815;DHT22;10568;48.176;16.316;2022-09-09T03:07:19;14.00;99.90
20815;DHT22;10568;48.176;16.316;2022-09-09T03:09:45;14.00;99.90
20815;DHT22;10568;48.176;16.316;2022-09-09T03:12:11;13.90;99.90
20815;DHT22;10568;48.176;16.316;2022-09-09T03:14:38;13.90;99.90
20815;DHT22;10568;48.176;16.316;2022-09-09T03:17:05;13.90;99.90
20815;DHT22;10568;48.176;16.316;2022-09-09T03:19:31;13.80;99.90
20815;DHT22;10568;48.176;16.316;2022-09-09T03:21:58;13.80;99.90
20815;DHT22;10568;48.176;16.316;2022-09-09T03:24:24;13.80;99.90
20815;DHT22;10568;48.176;16.316;2022-09-09T03:26:51;13.70;99.90
20815;DHT22;10568;48.176;16.316;2022-09-09T03:29:17;13.80;99.90
20815;DHT22;10568;48.176;16.316;2022-09-09T03:31:44;13.70;99.90
20815;DHT22;10568;48.176;16.316;2022-09-09T03:34:10;13.60;99.90
20815;DHT22;10568;48.176;16.316;2022-09-09T03:36:36;13.60;99.90
20815;DHT22;10568;48.176;16.316;2022-09-09T03:39:03;13.60;99.90
20815;DHT22;10568;48.176;16.316;2022-09-09T03:41:29;13.60;99.90
20815;DHT22;10568;48.176;16.316;2022-09-09T03:43:56;13.50;99.90
20815;DHT22;10568;48.176;16.316;2022-09-09T03:46:23;13.50;99.90
20815;DHT22;10568;48.176;16.316;2022-09-09T03:48:49;13.50;99.90
20815;DHT22;10568;48.176;16.316;2022-09-09T03:51:16;13.50;99.90
20815;DHT22;10568;48.176;16.316;2022-09-09T03:53:42;13.50;99.90
20815;DHT22;10568;48.176;16.316;2022-09-09T03:56:08;13.40;99.90
20815;DHT22;10568;48.176;16.316;2022-09-09T03:58:35;13.40;99.90
20815;DHT22;10568;48.176;16.316;2022-09-09T04:01:10;13.40;99.90
20815;DHT22;10568;48.176;16.316;2022-09-09T04:03:36;13.30;99.90
20815;DHT22;10568;48.176;16.316;2022-09-09T04:06:03;13.30;99.90
20815;DHT22;10568;48.176;16.316;2022-09-09T04:08:30;13.30;99.90
20815;DHT22;10568;48.176;16.316;2022-09-09T04:11:01;13.20;99.90
20815;DHT22;10568;48.176;16.316;2022-09-09T04:13:33;13.20;99.90
20815;DHT22;10568;48.176;16.316;2022-09-09T04:16:01;13.10;99.90
20815;DHT22;10568;48.176;16.316;2022-09-09T04:18:27;13.10;99.90
20815;DHT22;10568;48.176;16.316;2022-09-09T04:20:56;13.10;99.90
20815;DHT22;10568;48.176;16.316;2022-09-09T04:23:26;13.10;99.90
20815;DHT22;10568;48.176;16.316;2022-09-09T04:26:15;13.00;99.90
20815;DHT22;10568;48.176;16.316;2022-09-09T04:28:41;13.00;99.90
20815;DHT22;10568;48.176;16.316;2022-09-09T04:31:17;13.00;99.90
20815;DHT22;10568;48.176;16.316;2022-09-09T04:33:44;13.00;99.90
20815;DHT22;10568;48.176;16.316;2022-09-09T04:36:10;12.90;99.90
20815;DHT22;10568;48.176;16.316;2022-09-09T04:38:36;12.90;99.90
20815;DHT22;10568;48.176;16.316;2022-09-09T04:41:02;12.90;99.90
20815;DHT22;10568;48.176;16.316;2022-09-09T04:43:27;12.80;99.90
20815;DHT22;10568;48.176;16.316;2022-09-09T04:45:53;12.80;99.90
20815;DHT22;10568;48.176;16.316;2022-09-09T04:48:20;12.80;99.90
20815;DHT22;10568;48.176;16.316;2022-09-09T04:51:00;12.80;99.90
20815;DHT22;10568;48.176;16.316;2022-09-09T04:53:27;12.80;99.90
20815;DHT22;10568;48.176;16.316;2022-09-09T04:56:03;12.80;99.90
20815;DHT22;10568;48.176;16.316;2022-09-09T04:58:30;12.80;99.90
20815;DHT22;10568;48.176;16.316;2022-09-09T05:01:06;12.80;99.90
20815;DHT22;10568;48.176;16.316;2022-09-09T05:03:33;12.70;99.90
20815;DHT22;10568;48.176;16.316;2022-09-09T05:06:04;12.80;99.90
20815;DHT22;10568;48.176;16.316;2022-09-09T05:08:29;12.70;99.90
20815;DHT22;10568;48.176;16.316;2022-09-09T05:10:55;12.70;99.90
20815;DHT22;10568;48.176;16.316;2022-09-09T05:13:21;12.70;99.90
20815;DHT22;10568;48.176;16.316;2022-09-09T05:15:54;12.70;99.90
20815;DHT22;10568;48.176;16.316;2022-09-09T05:20:48;12.70;99.90
20815;DHT22;10568;48.176;16.316;2022-09-09T05:23:14;12.70;99.90
20815;DHT22;10568;48.176;16.316;2022-09-09T05:25:40;12.70;99.90
20815;DHT22;10568;48.176;16.316;2022-09-09T05:28:07;12.60;99.90
20815;DHT22;10568;48.176;16.316;2022-09-09T05:30:34;12.80;99.90
20815;DHT22;10568;48.176;16.316;2022-09-09T05:32:59;12.80;99.90
20815;DHT22;10568;48.176;16.316;2022-09-09T05:35:26;12.80;99.90
20815;DHT22;10568;48.176;16.316;2022-09-09T05:37:52;12.90;99.90
20815;DHT22;10568;48.176;16.316;2022-09-09T05:40:18;12.90;99.90
20815;DHT22;10568;48.176;16.316;2022-09-09T05:42:44;13.00;99.90
20815;DHT22;10568;48.176;16.316;2022-09-09T05:45:10;13.10;99.90
20815;DHT22;10568;48.176;16.316;2022-09-09T05:47:36;13.20;99.90
20815;DHT22;10568;48.176;16.316;2022-09-09T05:50:03;13.20;99.90
20815;DHT22;10568;48.176;16.316;2022-09-09T05:52:29;13.30;99.90
20815;DHT22;10568;48.176;16.316;2022-09-09T05:54:55;13.40;99.90
20815;DHT22;10568;48.176;16.316;2022-09-09T05:57:22;13.50;99.90
20815;DHT22;10568;48.176;16.316;2022-09-09T05:59:48;13.60;99.90
20815;DHT22;10568;48.176;16.316;2022-09-09T06:02:15;13.70;99.90
20815;DHT22;10568;48.176;16.316;2022-09-09T06:04:41;13.70;99.90
20815;DHT22;10568;48.176;16.316;2022-09-09T06:07:07;13.80;99.90
20815;DHT22;10568;48.176;16.316;2022-09-09T06:09:33;13.80;99.90
20815;DHT22;10568;48.176;16.316;2022-09-09T06:11:59;13.80;99.90
20815;DHT22;10568;48.176;16.316;2022-09-09T06:14:24;13.90;99.90
20815;DHT22;10568;48.176;16.316;2022-09-09T06:16:52;13.90;99.90
20815;DHT22;10568;48.176;16.316;2022-09-09T07:18:40;17.20;99.90
20815;DHT22;10568;48.176;16.316;2022-09-09T07:21:07;17.30;99.90
20815;DHT22;10568;48.176;16.316;2022-09-09T07:23:43;17.30;99.90
20815;DHT22;10568;48.176;16.316;2022-09-09T07:26:14;17.40;99.90
20815;DHT22;10568;48.176;16.316;2022-09-09T07:28:40;17.40;99.90
20815;DHT22;10568;48.176;16.316;2022-09-09T07:31:12;17.50;99.90
20815;DHT22;10568;48.176;16.316;2022-09-09T07:33:39;17.70;99.90
20815;DHT22;10568;48.176;16.316;2022-09-09T07:38:46;17.80;99.90
20815;DHT22;10568;48.176;16.316;2022-09-09T07:41:19;17.80;99.90
20815;DHT22;10568;48.176;16.316;2022-09-09T07:43:47;17.80;99.90
20815;DHT22;10568;48.176;16.316;2022-09-09T07:46:14;17.90;99.90
20815;DHT22;10568;48.176;16.316;2022-09-09T07:48:45;17.90;99.90
20815;DHT22;10568;48.176;16.316;2022-09-09T07:51:14;18.00;99.90
20815;DHT22;10568;48.176;16.316;2022-09-09T07:53:45;18.10;99.90
20815;DHT22;10568;48.176;16.316;2022-09-09T07:56:15;18.30;99.90
20815;DHT22;10568;48.176;16.316;2022-09-09T07:58:49;18.40;99.90
20815;DHT22;10568;48.176;16.316;2022-09-09T08:01:19;18.60;99.90
20815;DHT22;10568;48.176;16.316;2022-09-09T08:03:46;18.80;99.90
20815;DHT22;10568;48.176;16.316;2022-09-09T08:06:13;18.90;99.90
20815;DHT22;10568;48.176;16.316;2022-09-09T08:08:40;19.10;99.90
20815;DHT22;10568;48.176;16.316;2022-09-09T08:11:11;19.30;99.90
20815;DHT22;10568;48.176;16.316;2022-09-09T08:13:37;19.50;99.90
20815;DHT22;10568;48.176;16.316;2022-09-09T08:16:07;19.60;99.90
20815;DHT22;10568;48.176;16.316;2022-09-09T08:18:34;19.90;99.90
20815;DHT22;10568;48.176;16.316;2022-09-09T08:21:14;20.10;99.90
20815;DHT22;10568;48.176;16.316;2022-09-09T08:23:44;20.30;99.90
20815;DHT22;10568;48.176;16.316;2022-09-09T08:26:14;20.60;99.90
20815;DHT22;10568;48.176;16.316;2022-09-09T08:33:34;21.40;99.90
20815;DHT22;10568;48.176;16.316;2022-09-09T08:36:02;21.50;99.90
20815;DHT22;10568;48.176;16.316;2022-09-09T08:38:28;21.50;99.90
20815;DHT22;10568;48.176;16.316;2022-09-09T08:48:36;22.40;99.90
20815;DHT22;10568;48.176;16.316;2022-09-09T08:51:07;22.60;99.90
20815;DHT22;10568;48.176;16.316;2022-09-09T08:53:47;22.90;99.90
20815;DHT22;10568;48.176;16.316;2022-09-09T08:56:19;23.00;99.90
20815;DHT22;10568;48.176;16.316;2022-09-09T08:58:53;22.90;99.90
20815;DHT22;10568;48.176;16.316;2022-09-09T09:01:47;23.00;99.90
20815;DHT22;10568;48.176;16.316;2022-09-09T09:12:38;24.30;99.90
20815;DHT22;10568;48.176;16.316;2022-09-09T09:15:11;24.60;99.90
20815;DHT22;10568;48.176;16.316;2022-09-09T09:17:42;24.80;99.90
20815;DHT22;10568;48.176;16.316;2022-09-09T09:20:14;24.80;99.90
20815;DHT22;10568;48.176;16.316;2022-09-09T09:26:05;25.20;99.90
20815;DHT22;10568;48.176;16.316;2022-09-09T09:28:32;25.80;99.90
20815;DHT22;10568;48.176;16.316;2022-09-09T09:31:20;26.00;99.90
20815;DHT22;10568;48.176;16.316;2022-09-09T09:33:53;26.50;99.90
20815;DHT22;10568;48.176;16.316;2022-09-09T09:36:25;26.60;99.90
20815;DHT22;10568;48.176;16.316;2022-09-09T09:39:29;26.10;99.90
20815;DHT22;10568;48.176;16.316;2022-09-09T09:41:55;25.90;99.90
20815;DHT22;10568;48.176;16.316;2022-09-09T09:44:32;25.70;99.90
20815;DHT22;10568;48.176;16.316;2022-09-09T09:49:34;25.80;99.90
20815;DHT22;10568;48.176;16.316;2022-09-09T09:52:01;25.70;99.90
20815;DHT22;10568;48.176;16.316;2022-09-09T09:54:30;25.30;99.90
20815;DHT22;10568;48.176;16.316;2022-09-09T09:57:06;24.90;99.90
20815;DHT22;10568;48.176;16.316;2022-09-09T09:59:36;24.50;99.90
20815;DHT22;10568;48.176;16.316;2022-09-09T10:02:22;24.50;99.90
20815;DHT22;10568;48.176;16.316;2022-09-09T10:05:25;24.70;99.90
20815;DHT22;10568;48.176;16.316;2022-09-09T10:08:12;24.70;99.90
20815;DHT22;10568;48.176;16.316;2022-09-09T10:14:00;25.70;99.90
20815;DHT22;10568;48.176;16.316;2022-09-09T10:16:56;25.70;99.90
20815;DHT22;10568;48.176;16.316;2022-09-09T10:19:21;25.80;99.90
20815;DHT22;10568;48.176;16.316;2022-09-09T10:30:14;26.00;99.90
20815;DHT22;10568;48.176;16.316;2022-09-09T10:32:54;25.80;99.90
20815;DHT22;10568;48.176;16.316;2022-09-09T10:46:21;25.70;99.90
20815;DHT22;10568;48.176;16.316;2022-09-09T10:49:01;25.80;99.90
20815;DHT22;10568;48.176;16.316;2022-09-09T10:57:13;26.20;99.90
20815;DHT22;10568;48.176;16.316;2022-09-09T10:59:47;26.00;99.90
20815;DHT22;10568;48.176;16.316;2022-09-09T11:02:16;25.90;99.90
20815;DHT22;10568;48.176;16.316;2022-09-09T11:10:58;25.80;99.90
20815;DHT22;10568;48.176;16.316;2022-09-09T11:13:55;25.70;99.90
20815;DHT22;10568;48.176;16.316;2022-09-09T11:16:42;25.50;99.90
20815;DHT22;10568;48.176;16.316;2022-09-09T11:19:38;25.60;99.90
20815;DHT22;10568;48.176;16.316;2022-09-09T11:22:18;25.60;99.90
20815;DHT22;10568;48.176;16.316;2022-09-09T11:38:50;25.40;99.90
20815;DHT22;10568;48.176;16.316;2022-09-09T11:41:18;25.50;99.90
20815;DHT22;10568;48.176;16.316;2022-09-09T11:43:49;25.50;99.90
20815;DHT22;10568;48.176;16.316;2022-09-09T11:46:31;25.70;99.90
20815;DHT22;10568;48.176;16.316;2022-09-09T11:52:37;26.00;99.90
20815;DHT22;10568;48.176;16.316;2022-09-09T11:55:11;26.00;99.90
20815;DHT22;10568;48.176;16.316;2022-09-09T11:57:38;26.20;99.90
20815;DHT22;10568;48.176;16.316;2022-09-09T12:00:05;26.20;99.90
20815;DHT22;10568;48.176;16.316;2022-09-09T12:02:32;26.20;99.90
20815;DHT22;10568;48.176;16.316;2022-09-09T12:05:02;26.20;99.90
20815;DHT22;10568;48.176;16.316;2022-09-09T12:07:40;26.30;99.90
20815;DHT22;10568;48.176;16.316;2022-09-09T12:12:34;26.40;99.90
20815;DHT22;10568;48.176;16.316;2022-09-09T12:15:17;26.50;99.90
20815;DHT22;10568;48.176;16.316;2022-09-09T12:17:48;26.50;99.90
20815;DHT22;10568;48.176;16.316;2022-09-09T12:31:35;27.50;99.90
20815;DHT22;10568;48.176;16.316;2022-09-09T12:34:36;27.20;99.90
20815;DHT22;10568;48.176;16.316;2022-09-09T12:42:21;26.70;99.20
20815;DHT22;10568;48.176;16.316;2022-09-09T12:44:58;26.60;99.90
20815;DHT22;10568;48.176;16.316;2022-09-09T12:47:33;26.60;99.90
20815;DHT22;10568;48.176;16.316;2022-09-09T12:50:01;26.40;99.90
20815;DHT22;10568;48.176;16.316;2022-09-09T12:52:35;26.30;98.80
20815;DHT22;10568;48.176;16.316;2022-09-09T12:55:05;26.20;99.90
20815;DHT22;10568;48.176;16.316;2022-09-09T12:57:36;26.10;99.90
20815;DHT22;10568;48.176;16.316;2022-09-09T13:00:12;25.90;99.70
20815;DHT22;10568;48.176;16.316;2022-09-09T13:02:48;25.70;99.90
20815;DHT22;10568;48.176;16.316;2022-09-09T13:07:50;25.50;99.90
20815;DHT22;10568;48.176;16.316;2022-09-09T13:10:28;25.30;99.90
20815;DHT22;10568;48.176;16.316;2022-09-09T13:12:54;25.20;99.90
20815;DHT22;10568;48.176;16.316;2022-09-09T13:15:23;25.10;99.90
20815;DHT22;10568;48.176;16.316;2022-09-09T13:18:00;24.90;99.90
20815;DHT22;10568;48.176;16.316;2022-09-09T13:20:28;24.90;99.90
20815;DHT22;10568;48.176;16.316;2022-09-09T13:22:55;24.80;99.90
20815;DHT22;10568;48.176;16.316;2022-09-09T13:25:24;24.70;99.90
20815;DHT22;10568;48.176;16.316;2022-09-09T13:28:04;24.60;99.90
20815;DHT22;10568;48.176;16.316;2022-09-09T13:30:37;24.40;99.90
20815;DHT22;10568;48.176;16.316;2022-09-09T13:38:15;24.10;99.90
20815;DHT22;10568;48.176;16.316;2022-09-09T13:40:56;24.00;99.90
20815;DHT22;10568;48.176;16.316;2022-09-09T13:43:24;23.90;99.90
20815;DHT22;10568;48.176;16.316;2022-09-09T13:45:58;23.80;99.90
20815;DHT22;10568;48.176;16.316;2022-09-09T13:48:25;23.60;99.90
20815;DHT22;10568;48.176;16.316;2022-09-09T13:50:59;23.50;99.90
20815;DHT22;10568;48.176;16.316;2022-09-09T13:53:26;23.40;99.90
20815;DHT22;10568;48.176;16.316;2022-09-09T13:55:52;23.30;99.90
20815;DHT22;10568;48.176;16.316;2022-09-09T13:58:18;23.30;99.90
20815;DHT22;10568;48.176;16.316;2022-09-09T14:00:44;23.20;99.90
20815;DHT22;10568;48.176;16.316;2022-09-09T14:03:10;23.10;99.90
20815;DHT22;10568;48.176;16.316;2022-09-09T14:05:36;23.00;99.90
20815;DHT22;10568;48.176;16.316;2022-09-09T14:08:06;23.00;99.90
20815;DHT22;10568;48.176;16.316;2022-09-09T14:10:33;22.90;99.90
20815;DHT22;10568;48.176;16.316;2022-09-09T14:13:02;22.80;99.90
20815;DHT22;10568;48.176;16.316;2022-09-09T14:15:28;22.60;99.90
20815;DHT22;10568;48.176;16.316;2022-09-09T14:17:55;22.50;99.90
20815;DHT22;10568;48.176;16.316;2022-09-09T14:20:21;22.30;99.90
20815;DHT22;10568;48.176;16.316;2022-09-09T14:22:46;22.10;99.90
20815;DHT22;10568;48.176;16.316;2022-09-09T14:25:13;21.90;99.90
20815;DHT22;10568;48.176;16.316;2022-09-09T14:27:39;21.70;99.90
20815;DHT22;10568;48.176;16.316;2022-09-09T14:30:06;21.50;99.90
20815;DHT22;10568;48.176;16.316;2022-09-09T14:32:32;21.40;99.90
20815;DHT22;10568;48.176;16.316;2022-09-09T14:34:58;21.20;99.90
20815;DHT22;10568;48.176;16.316;2022-09-09T14:37:24;21.10;99.90
20815;DHT22;10568;48.176;16.316;2022-09-09T14:39:51;21.00;99.90
20815;DHT22;10568;48.176;16.316;2022-09-09T14:42:17;20.90;99.90
20815;DHT22;10568;48.176;16.316;2022-09-09T14:44:43;20.70;99.90
20815;DHT22;10568;48.176;16.316;2022-09-09T14:47:08;20.70;99.90
20815;DHT22;10568;48.176;16.316;2022-09-09T14:49:35;20.60;99.90
20815;DHT22;10568;48.176;16.316;2022-09-09T14:52:01;20.70;99.90
20815;DHT22;10568;48.176;16.316;2022-09-09T14:54:27;20.70;99.90
20815;DHT22;10568;48.176;16.316;2022-09-09T14:56:53;20.60;99.90
20815;DHT22;10568;48.176;16.316;2022-09-09T14:59:19;20.70;99.90
20815;DHT22;10568;48.176;16.316;2022-09-09T15:01:45;20.70;99.90
20815;DHT22;10568;48.176;16.316;2022-09-09T15:04:12;20.70;99.90
20815;DHT22;10568;48.176;16.316;2022-09-09T15:06:38;20.70;99.90
20815;DHT22;10568;48.176;16.316;2022-09-09T15:09:05;20.60;99.90
20815;DHT22;10568;48.176;16.316;2022-09-09T15:11:33;20.60;99.90
20815;DHT22;10568;48.176;16.316;2022-09-09T15:14:05;20.50;99.90
20815;DHT22;10568;48.176;16.316;2022-09-09T15:16:31;20.40;99.90
20815;DHT22;10568;48.176;16.316;2022-09-09T15:18:59;20.50;99.90
20815;DHT22;10568;48.176;16.316;2022-09-09T15:21:27;20.40;99.90
20815;DHT22;10568;48.176;16.316;2022-09-09T15:24:15;20.40;99.90
20815;DHT22;10568;48.176;16.316;2022-09-09T15:26:41;20.30;99.90
20815;DHT22;10568;48.176;16.316;2022-09-09T15:29:08;20.40;99.90
20815;DHT22;10568;48.176;16.316;2022-09-09T15:31:34;20.30;99.90
20815;DHT22;10568;48.176;16.316;2022-09-09T15:34:03;20.30;99.90
20815;DHT22;10568;48.176;16.316;2022-09-09T15:38:58;20.20;99.90
20815;DHT22;10568;48.176;16.316;2022-09-09T15:41:25;20.20;99.90
20815;DHT22;10568;48.176;16.316;2022-09-09T15:43:53;20.00;99.90
20815;DHT22;10568;48.176;16.316;2022-09-09T15:46:32;20.00;99.90
20815;DHT22;10568;48.176;16.316;2022-09-09T15:49:05;20.00;99.90
20815;DHT22;10568;48.176;16.316;2022-09-09T15:51:32;19.70;99.90
20815;DHT22;10568;48.176;16.316;2022-09-09T15:53:59;19.80;99.90
20815;DHT22;10568;48.176;16.316;2022-09-09T15:56:26;19.80;99.90
20815;DHT22;10568;48.176;16.316;2022-09-09T15:58:53;19.60;99.90
20815;DHT22;10568;48.176;16.316;2022-09-09T16:01:20;19.70;99.90
20815;DHT22;10568;48.176;16.316;2022-09-09T16:03:46;19.50;99.90
20815;DHT22;10568;48.176;16.316;2022-09-09T16:06:17;19.40;99.90
20815;DHT22;10568;48.176;16.316;2022-09-09T16:08:45;19.40;99.90
20815;DHT22;10568;48.176;16.316;2022-09-09T16:11:27;19.40;99.90
20815;DHT22;10568;48.176;16.316;2022-09-09T16:13:54;19.40;99.90
20815;DHT22;10568;48.176;16.316;2022-09-09T16:16:23;19.30;99.90
20815;DHT22;10568;48.176;16.316;2022-09-09T16:18:51;19.20;99.90
20815;DHT22;10568;48.176;16.316;2022-09-09T16:21:22;19.20;99.90
20815;DHT22;10568;48.176;16.316;2022-09-09T16:23:51;19.10;99.90
20815;DHT22;10568;48.176;16.316;2022-09-09T16:26:18;19.00;99.90
20815;DHT22;10568;48.176;16.316;2022-09-09T16:28:44;18.90;99.90
20815;DHT22;10568;48.176;16.316;2022-09-09T16:31:14;18.90;99.90
20815;DHT22;10568;48.176;16.316;2022-09-09T16:33:42;18.80;99.90
20815;DHT22;10568;48.176;16.316;2022-09-09T16:36:09;18.80;99.90
20815;DHT22;10568;48.176;16.316;2022-09-09T16:38:36;18.70;99.90
20815;DHT22;10568;48.176;16.316;2022-09-09T16:41:06;18.70;99.90
20815;DHT22;10568;48.176;16.316;2022-09-09T16:43:33;18.60;99.90
20815;DHT22;10568;48.176;16.316;2022-09-09T16:45:59;18.60;99.90
20815;DHT22;10568;48.176;16.316;2022-09-09T16:48:34;18.50;99.90
20815;DHT22;10568;48.176;16.316;2022-09-09T16:51:05;18.50;99.90
20815;DHT22;10568;48.176;16.316;2022-09-09T16:53:36;18.40;99.90
20815;DHT22;10568;48.176;16.316;2022-09-09T16:56:07;18.30;99.90
20815;DHT22;10568;48.176;16.316;2022-09-09T16:58:34;18.30;99.90
20815;DHT22;10568;48.176;16.316;2022-09-09T17:01:01;18.30;99.90
20815;DHT22;10568;48.176;16.316;2022-09-09T17:03:31;18.20;99.90
20815;DHT22;10568;48.176;16.316;2022-09-09T17:05:58;18.20;99.90
20815;DHT22;10568;48.176;16.316;2022-09-09T17:08:30;18.10;99.90
20815;DHT22;10568;48.176;16.316;2022-09-09T17:10:57;18.10;99.90
20815;DHT22;10568;48.176;16.316;2022-09-09T17:13:23;18.00;99.90
20815;DHT22;10568;48.176;16.316;2022-09-09T17:15:49;18.00;99.90
20815;DHT22;10568;48.176;16.316;2022-09-09T17:18:14;18.00;99.90
20815;DHT22;10568;48.176;16.316;2022-09-09T17:20:41;17.90;99.90
20815;DHT22;10568;48.176;16.316;2022-09-09T17:23:09;17.80;99.90
20815;DHT22;10568;48.176;16.316;2022-09-09T17:25:36;17.90;99.90
20815;DHT22;10568;48.176;16.316;2022-09-09T17:28:02;17.80;99.90
20815;DHT22;10568;48.176;16.316;2022-09-09T17:30:35;17.80;99.90
20815;DHT22;10568;48.176;16.316;2022-09-09T17:33:02;17.70;99.90
20815;DHT22;10568;48.176;16.316;2022-09-09T17:35:29;17.70;99.90
20815;DHT22;10568;48.176;16.316;2022-09-09T17:37:55;17.60;99.90
20815;DHT22;10568;48.176;16.316;2022-09-09T17:40:21;17.50;99.90
20815;DHT22;10568;48.176;16.316;2022-09-09T17:42:47;17.40;99.90
20815;DHT22;10568;48.176;16.316;2022-09-09T17:45:14;17.40;99.90
20815;DHT22;10568;48.176;16.316;2022-09-09T17:47:40;17.30;99.90
20815;DHT22;10568;48.176;16.316;2022-09-09T17:50:09;17.20;99.90
20815;DHT22;10568;48.176;16.316;2022-09-09T17:52:36;17.10;99.90
20815;DHT22;10568;48.176;16.316;2022-09-09T17:55:03;17.10;99.90
20815;DHT22;10568;48.176;16.316;2022-09-09T17:57:29;17.00;99.90
20815;DHT22;10568;48.176;16.316;2022-09-09T17:59:55;17.00;99.90
20815;DHT22;10568;48.176;16.316;2022-09-09T18:02:21;17.00;99.90
20815;DHT22;10568;48.176;16.316;2022-09-09T18:04:48;16.90;99.90
20815;DHT22;10568;48.176;16.316;2022-09-09T18:07:14;16.90;99.90
20815;DHT22;10568;48.176;16.316;2022-09-09T18:09:39;16.90;99.90
20815;DHT22;10568;48.176;16.316;2022-09-09T18:12:05;16.90;99.90
20815;DHT22;10568;48.176;16.316;2022-09-09T18:14:32;16.90;99.90
20815;DHT22;10568;48.176;16.316;2022-09-09T18:17:01;16.80;99.90
20815;DHT22;10568;48.176;16.316;2022-09-09T18:19:29;16.80;99.90
20815;DHT22;10568;48.176;16.316;2022-09-09T18:21:56;16.80;99.90
20815;DHT22;10568;48.176;16.316;2022-09-09T18:24:22;16.70;99.90
20815;DHT22;10568;48.176;16.316;2022-09-09T18:26:51;16.70;99.90
20815;DHT22;10568;48.176;16.316;2022-09-09T18:29:20;16.70;99.90
20815;DHT22;10568;48.176;16.316;2022-09-09T18:31:48;16.70;99.90
20815;DHT22;10568;48.176;16.316;2022-09-09T18:34:16;16.70;99.90
20815;DHT22;10568;48.176;16.316;2022-09-09T18:36:44;16.60;99.90
20815;DHT22;10568;48.176;16.316;2022-09-09T18:39:14;16.80;99.90
20815;DHT22;10568;48.176;16.316;2022-09-09T18:41:45;16.60;99.90
20815;DHT22;10568;48.176;16.316;2022-09-09T18:44:21;16.70;99.90
20815;DHT22;10568;48.176;16.316;2022-09-09T18:46:48;16.70;99.90
20815;DHT22;10568;48.176;16.316;2022-09-09T18:49:16;16.60;99.90
20815;DHT22;10568;48.176;16.316;2022-09-09T18:51:44;16.60;99.90
20815;DHT22;10568;48.176;16.316;2022-09-09T18:54:15;16.50;99.90
20815;DHT22;10568;48.176;16.316;2022-09-09T18:56:42;16.60;99.90
20815;DHT22;10568;48.176;16.316;2022-09-09T18:59:11;16.50;99.90
20815;DHT22;10568;48.176;16.316;2022-09-09T19:01:38;16.50;99.90
20815;DHT22;10568;48.176;16.316;2022-09-09T19:04:07;16.50;99.90
20815;DHT22;10568;48.176;16.316;2022-09-09T19:06:37;16.50;99.90
20815;DHT22;10568;48.176;16.316;2022-09-09T19:09:04;16.50;99.90
20815;DHT22;10568;48.176;16.316;2022-09-09T19:11:30;16.50;99.90
20815;DHT22;10568;48.176;16.316;2022-09-09T19:14:02;16.40;99.90
20815;DHT22;10568;48.176;16.316;2022-09-09T19:16:30;16.40;99.90